sensor_id;sensor_type;location;lat;lon;timestamp;P1;durP1;ratioP1;P2;durP2;ratioP2
11809;SDS011;5962;41.566;23.734;2024-01-15T00:01:59;48.17;;;26.40;;
11809;SDS011;5962;41.566;23.734;2024-01-15T00:04:28;50.50;;;27.17;;
11809;SDS011;5962;41.566;23.734;2024-01-15T00:06:56;74.33;;;39.50;;
11809;SDS011;5962;41.566;23.734;2024-01-15T00:09:25;81.60;;;39.80;;
11809;SDS011;5962;41.566;23.734;2024-01-15T00:11:54;60.30;;;31.63;;
11809;SDS011;5962;41.566;23.734;2024-01-15T00:14:22;43.17;;;23.00;;
11809;SDS011;5962;41.566;23.734;2024-01-15T00:16:50;44.63;;;23.80;;
11809;SDS011;5962;41.566;23.734;2024-01-15T00:19:18;45.90;;;23.83;;
11809;SDS011;5962;41.566;23.734;2024-01-15T00:21:46;54.00;;;27.30;;
11809;SDS011;5962;41.566;23.734;2024-01-15T00:24:14;50.87;;;28.87;;
11809;SDS011;5962;41.566;23.734;2024-01-15T00:26:44;69.97;;;34.97;;
11809;SDS011;5962;41.566;23.734;2024-01-15T00:29:12;66.37;;;33.87;;
11809;SDS011;5962;41.566;23.734;2024-01-15T00:31:40;66.23;;;33.33;;
11809;SDS011;5962;41.566;23.734;2024-01-15T00:34:08;68.20;;;33.20;;
11809;SDS011;5962;41.566;23.734;2024-01-15T00:36:36;70.20;;;33.87;;
11809;SDS011;5962;41.566;23.734;2024-01-15T00:39:04;51.73;;;28.00;;
11809;SDS011;5962;41.566;23.734;2024-01-15T00:41:32;47.47;;;26.00;;
11809;SDS011;5962;41.566;23.734;2024-01-15T00:44:02;51.30;;;27.57;;
11809;SDS011;5962;41.566;23.734;2024-01-15T00:46:30;50.93;;;27.37;;
11809;SDS011;5962;41.566;23.734;2024-01-15T00:48:58;50.90;;;26.50;;
11809;SDS011;5962;41.566;23.734;2024-01-15T00:51:26;54.00;;;26.53;;
11809;SDS011;5962;41.566;23.734;2024-01-15T00:53:54;49.00;;;26.73;;
11809;SDS011;5962;41.566;23.734;2024-01-15T00:56:23;57.10;;;29.50;;
11809;SDS011;5962;41.566;23.734;2024-01-15T00:58:50;56.03;;;28.93;;
11809;SDS011;5962;41.566;23.734;2024-01-15T01:01:20;64.40;;;32.40;;
11809;SDS011;5962;41.566;23.734;2024-01-15T01:03:48;52.60;;;29.27;;
11809;SDS011;5962;41.566;23.734;2024-01-15T01:06:16;54.97;;;28.60;;
11809;SDS011;5962;41.566;23.734;2024-01-15T01:08:44;53.07;;;26.40;;
11809;SDS011;5962;41.566;23.734;2024-01-15T01:11:12;66.80;;;37.13;;
11809;SDS011;5962;41.566;23.734;2024-01-15T01:13:40;71.87;;;37.03;;
11809;SDS011;5962;41.566;23.734;2024-01-15T01:16:08;65.63;;;34.40;;
11809;SDS011;5962;41.566;23.734;2024-01-15T01:18:38;69.53;;;35.63;;
11809;SDS011;5962;41.566;23.734;2024-01-15T01:21:06;63.13;;;32.67;;
11809;SDS011;5962;41.566;23.734;2024-01-15T01:23:34;59.73;;;30.80;;
11809;SDS011;5962;41.566;23.734;2024-01-15T01:26:02;57.70;;;31.60;;
11809;SDS011;5962;41.566;23.734;2024-01-15T01:28:30;59.00;;;30.37;;
11809;SDS011;5962;41.566;23.734;2024-01-15T01:30:59;56.70;;;31.37;;
11809;SDS011;5962;41.566;23.734;2024-01-15T01:33:27;59.43;;;32.10;;
11809;SDS011;5962;41.566;23.734;2024-01-15T01:35:56;57.17;;;30.50;;
11809;SDS011;5962;41.566;23.734;2024-01-15T01:38:24;61.67;;;30.73;;
11809;SDS011;5962;41.566;23.734;2024-01-15T01:40:52;57.97;;;31.60;;
11809;SDS011;5962;41.566;23.734;2024-01-15T01:43:20;59.37;;;31.83;;
11809;SDS011;5962;41.566;23.734;2024-01-15T01:45:48;55.93;;;30.93;;
11809;SDS011;5962;41.566;23.734;2024-01-15T01:48:16;55.57;;;29.53;;
11809;SDS011;5962;41.566;23.734;2024-01-15T01:50:44;59.73;;;33.57;;
11809;SDS011;5962;41.566;23.734;2024-01-15T01:53:13;70.63;;;34.37;;
11809;SDS011;5962;41.566;23.734;2024-01-15T01:55:42;63.57;;;32.23;;
11809;SDS011;5962;41.566;23.734;2024-01-15T01:58:10;64.83;;;30.80;;
11809;SDS011;5962;41.566;23.734;2024-01-15T02:00:38;64.00;;;32.03;;
11809;SDS011;5962;41.566;23.734;2024-01-15T02:03:06;67.60;;;32.80;;
11809;SDS011;5962;41.566;23.734;2024-01-15T02:05:35;60.73;;;31.87;;
11809;SDS011;5962;41.566;23.734;2024-01-15T02:08:04;54.50;;;31.00;;
11809;SDS011;5962;41.566;23.734;2024-01-15T02:10:34;54.43;;;30.40;;
11809;SDS011;5962;41.566;23.734;2024-01-15T02:13:02;53.90;;;28.83;;
11809;SDS011;5962;41.566;23.734;2024-01-15T02:15:31;54.73;;;30.00;;
11809;SDS011;5962;41.566;23.734;2024-01-15T02:17:59;61.33;;;31.97;;
11809;SDS011;5962;41.566;23.734;2024-01-15T02:20:29;57.70;;;31.20;;
11809;SDS011;5962;41.566;23.734;2024-01-15T02:23:03;61.77;;;31.50;;
11809;SDS011;5962;41.566;23.734;2024-01-15T02:25:35;58.10;;;30.07;;
11809;SDS011;5962;41.566;23.734;2024-01-15T02:28:03;64.33;;;31.53;;
11809;SDS011;5962;41.566;23.734;2024-01-15T02:30:33;69.03;;;30.53;;
11809;SDS011;5962;41.566;23.734;2024-01-15T02:33:05;58.50;;;28.77;;
11809;SDS011;5962;41.566;23.734;2024-01-15T02:35:33;55.43;;;30.20;;
11809;SDS011;5962;41.566;23.734;2024-01-15T02:38:04;56.87;;;30.33;;
11809;SDS011;5962;41.566;23.734;2024-01-15T02:40:33;54.50;;;28.73;;
11809;SDS011;5962;41.566;23.734;2024-01-15T02:43:02;58.80;;;31.20;;
11809;SDS011;5962;41.566;23.734;2024-01-15T02:45:31;55.87;;;29.03;;
11809;SDS011;5962;41.566;23.734;2024-01-15T02:48:02;52.63;;;28.03;;
11809;SDS011;5962;41.566;23.734;2024-01-15T02:50:31;53.37;;;28.23;;
11809;SDS011;5962;41.566;23.734;2024-01-15T02:53:02;62.93;;;32.47;;
11809;SDS011;5962;41.566;23.734;2024-01-15T02:55:33;69.60;;;31.33;;
11809;SDS011;5962;41.566;23.734;2024-01-15T02:58:01;62.67;;;32.37;;
11809;SDS011;5962;41.566;23.734;2024-01-15T03:00:31;63.80;;;30.97;;
11809;SDS011;5962;41.566;23.734;2024-01-15T03:02:59;60.63;;;32.30;;
11809;SDS011;5962;41.566;23.734;2024-01-15T03:05:27;64.63;;;33.03;;
11809;SDS011;5962;41.566;23.734;2024-01-15T03:07:55;54.93;;;29.57;;
11809;SDS011;5962;41.566;23.734;2024-01-15T03:10:25;56.77;;;29.37;;
11809;SDS011;5962;41.566;23.734;2024-01-15T03:12:57;50.27;;;27.77;;
11809;SDS011;5962;41.566;23.734;2024-01-15T03:15:25;55.57;;;27.43;;
11809;SDS011;5962;41.566;23.734;2024-01-15T03:17:53;52.37;;;27.97;;
11809;SDS011;5962;41.566;23.734;2024-01-15T03:20:21;48.07;;;26.80;;
11809;SDS011;5962;41.566;23.734;2024-01-15T03:22:49;48.67;;;26.33;;
11809;SDS011;5962;41.566;23.734;2024-01-15T03:25:17;47.67;;;25.87;;
11809;SDS011;5962;41.566;23.734;2024-01-15T03:27:46;42.57;;;24.50;;
11809;SDS011;5962;41.566;23.734;2024-01-15T03:30:15;44.53;;;24.83;;
11809;SDS011;5962;41.566;23.734;2024-01-15T03:32:43;50.97;;;26.80;;
11809;SDS011;5962;41.566;23.734;2024-01-15T03:35:11;55.27;;;26.63;;
11809;SDS011;5962;41.566;23.734;2024-01-15T03:37:39;105.63;;;67.47;;
11809;SDS011;5962;41.566;23.734;2024-01-15T03:40:07;97.13;;;57.20;;
11809;SDS011;5962;41.566;23.734;2024-01-15T03:42:36;68.57;;;38.97;;
11809;SDS011;5962;41.566;23.734;2024-01-15T03:45:06;71.90;;;38.63;;
11809;SDS011;5962;41.566;23.734;2024-01-15T03:47:34;61.00;;;32.67;;
11809;SDS011;5962;41.566;23.734;2024-01-15T03:50:02;66.77;;;34.47;;
11809;SDS011;5962;41.566;23.734;2024-01-15T03:52:31;55.70;;;30.73;;
11809;SDS011;5962;41.566;23.734;2024-01-15T03:54:59;63.00;;;32.10;;
11809;SDS011;5962;41.566;23.734;2024-01-15T03:57:27;62.73;;;32.63;;
11809;SDS011;5962;41.566;23.734;2024-01-15T03:59:55;66.17;;;36.77;;
11809;SDS011;5962;41.566;23.734;2024-01-15T04:02:29;59.57;;;33.40;;
11809;SDS011;5962;41.566;23.734;2024-01-15T04:04:57;62.73;;;31.70;;
11809;SDS011;5962;41.566;23.734;2024-01-15T04:07:24;59.43;;;31.03;;
11809;SDS011;5962;41.566;23.734;2024-01-15T04:09:52;58.57;;;30.33;;
11809;SDS011;5962;41.566;23.734;2024-01-15T04:12:20;54.00;;;29.30;;
11809;SDS011;5962;41.566;23.734;2024-01-15T04:14:48;51.57;;;28.50;;
11809;SDS011;5962;41.566;23.734;2024-01-15T04:17:16;54.30;;;27.53;;
11809;SDS011;5962;41.566;23.734;2024-01-15T04:19:46;51.20;;;25.87;;
11809;SDS011;5962;41.566;23.734;2024-01-15T04:22:14;52.70;;;26.17;;
11809;SDS011;5962;41.566;23.734;2024-01-15T04:24:42;48.27;;;26.30;;
11809;SDS011;5962;41.566;23.734;2024-01-15T04:27:10;54.77;;;27.90;;
11809;SDS011;5962;41.566;23.734;2024-01-15T04:29:38;49.20;;;24.53;;
11809;SDS011;5962;41.566;23.734;2024-01-15T04:32:07;50.47;;;26.03;;
11809;SDS011;5962;41.566;23.734;2024-01-15T04:34:35;54.43;;;29.47;;
11809;SDS011;5962;41.566;23.734;2024-01-15T04:37:04;88.67;;;43.03;;
11809;SDS011;5962;41.566;23.734;2024-01-15T04:39:32;82.57;;;41.60;;
11809;SDS011;5962;41.566;23.734;2024-01-15T04:42:00;68.03;;;37.27;;
11809;SDS011;5962;41.566;23.734;2024-01-15T04:44:28;64.97;;;34.90;;
11809;SDS011;5962;41.566;23.734;2024-01-15T04:46:56;64.80;;;35.10;;
11809;SDS011;5962;41.566;23.734;2024-01-15T04:49:24;74.50;;;35.43;;
11809;SDS011;5962;41.566;23.734;2024-01-15T04:51:53;60.50;;;32.93;;
11809;SDS011;5962;41.566;23.734;2024-01-15T04:54:23;61.40;;;34.00;;
11809;SDS011;5962;41.566;23.734;2024-01-15T04:56:51;60.13;;;32.13;;
11809;SDS011;5962;41.566;23.734;2024-01-15T04:59:18;74.17;;;36.60;;
11809;SDS011;5962;41.566;23.734;2024-01-15T05:01:47;63.37;;;32.57;;
11809;SDS011;5962;41.566;23.734;2024-01-15T05:04:15;63.50;;;31.67;;
11809;SDS011;5962;41.566;23.734;2024-01-15T05:06:43;53.80;;;30.00;;
11809;SDS011;5962;41.566;23.734;2024-01-15T05:09:11;58.23;;;30.10;;
11809;SDS011;5962;41.566;23.734;2024-01-15T05:11:41;50.90;;;28.07;;
11809;SDS011;5962;41.566;23.734;2024-01-15T05:14:09;54.67;;;29.27;;
11809;SDS011;5962;41.566;23.734;2024-01-15T05:16:37;64.70;;;31.37;;
11809;SDS011;5962;41.566;23.734;2024-01-15T05:19:07;63.27;;;30.93;;
11809;SDS011;5962;41.566;23.734;2024-01-15T05:21:35;54.37;;;29.80;;
11809;SDS011;5962;41.566;23.734;2024-01-15T05:24:03;59.13;;;30.87;;
11809;SDS011;5962;41.566;23.734;2024-01-15T05:26:31;61.60;;;30.67;;
11809;SDS011;5962;41.566;23.734;2024-01-15T05:29:01;53.60;;;30.77;;
11809;SDS011;5962;41.566;23.734;2024-01-15T05:31:29;54.57;;;29.83;;
11809;SDS011;5962;41.566;23.734;2024-01-15T05:33:57;54.40;;;29.07;;
11809;SDS011;5962;41.566;23.734;2024-01-15T05:36:25;54.87;;;30.63;;
11809;SDS011;5962;41.566;23.734;2024-01-15T05:38:53;51.30;;;28.93;;
11809;SDS011;5962;41.566;23.734;2024-01-15T05:41:21;54.03;;;29.63;;
11809;SDS011;5962;41.566;23.734;2024-01-15T05:43:49;52.23;;;26.23;;
11809;SDS011;5962;41.566;23.734;2024-01-15T05:46:18;53.43;;;27.53;;
11809;SDS011;5962;41.566;23.734;2024-01-15T05:48:46;63.13;;;32.13;;
11809;SDS011;5962;41.566;23.734;2024-01-15T05:51:14;90.03;;;41.23;;
11809;SDS011;5962;41.566;23.734;2024-01-15T05:53:42;78.97;;;37.27;;
11809;SDS011;5962;41.566;23.734;2024-01-15T05:56:10;66.93;;;33.67;;
11809;SDS011;5962;41.566;23.734;2024-01-15T05:58:38;63.20;;;31.60;;
11809;SDS011;5962;41.566;23.734;2024-01-15T06:01:06;73.63;;;36.07;;
11809;SDS011;5962;41.566;23.734;2024-01-15T06:03:36;65.10;;;32.63;;
11809;SDS011;5962;41.566;23.734;2024-01-15T06:06:04;77.07;;;39.77;;
11809;SDS011;5962;41.566;23.734;2024-01-15T06:08:32;77.63;;;39.60;;
11809;SDS011;5962;41.566;23.734;2024-01-15T06:11:00;114.53;;;49.80;;
11809;SDS011;5962;41.566;23.734;2024-01-15T06:13:29;78.47;;;42.13;;
11809;SDS011;5962;41.566;23.734;2024-01-15T06:15:57;121.37;;;50.47;;
11809;SDS011;5962;41.566;23.734;2024-01-15T06:18:25;75.17;;;36.60;;
11809;SDS011;5962;41.566;23.734;2024-01-15T06:20:55;78.37;;;35.90;;
11809;SDS011;5962;41.566;23.734;2024-01-15T06:23:22;78.43;;;37.40;;
11809;SDS011;5962;41.566;23.734;2024-01-15T06:25:50;65.83;;;36.13;;
11809;SDS011;5962;41.566;23.734;2024-01-15T06:28:18;90.07;;;40.27;;
11809;SDS011;5962;41.566;23.734;2024-01-15T06:30:47;83.47;;;41.17;;
11809;SDS011;5962;41.566;23.734;2024-01-15T06:33:15;92.33;;;42.77;;
11809;SDS011;5962;41.566;23.734;2024-01-15T06:35:43;76.67;;;37.60;;
11809;SDS011;5962;41.566;23.734;2024-01-15T06:38:12;81.57;;;38.23;;
11809;SDS011;5962;41.566;23.734;2024-01-15T06:40:40;84.83;;;41.20;;
11809;SDS011;5962;41.566;23.734;2024-01-15T06:43:12;110.13;;;53.50;;
11809;SDS011;5962;41.566;23.734;2024-01-15T06:45:40;145.07;;;55.83;;
11809;SDS011;5962;41.566;23.734;2024-01-15T06:48:08;109.23;;;54.83;;
11809;SDS011;5962;41.566;23.734;2024-01-15T06:50:39;113.47;;;53.20;;
11809;SDS011;5962;41.566;23.734;2024-01-15T06:53:07;111.17;;;52.00;;
11809;SDS011;5962;41.566;23.734;2024-01-15T06:55:36;108.50;;;52.80;;
11809;SDS011;5962;41.566;23.734;2024-01-15T06:58:05;123.33;;;57.23;;
11809;SDS011;5962;41.566;23.734;2024-01-15T07:00:33;118.57;;;58.90;;
11809;SDS011;5962;41.566;23.734;2024-01-15T07:03:01;123.20;;;57.87;;
11809;SDS011;5962;41.566;23.734;2024-01-15T07:05:29;146.10;;;70.97;;
11809;SDS011;5962;41.566;23.734;2024-01-15T07:07:57;146.70;;;71.17;;
11809;SDS011;5962;41.566;23.734;2024-01-15T07:10:26;119.33;;;62.27;;
11809;SDS011;5962;41.566;23.734;2024-01-15T07:12:55;105.07;;;52.40;;
11809;SDS011;5962;41.566;23.734;2024-01-15T07:15:23;85.43;;;43.60;;
11809;SDS011;5962;41.566;23.734;2024-01-15T07:17:51;83.20;;;44.10;;
11809;SDS011;5962;41.566;23.734;2024-01-15T07:20:19;80.67;;;41.50;;
11809;SDS011;5962;41.566;23.734;2024-01-15T07:22:47;66.83;;;32.73;;
11809;SDS011;5962;41.566;23.734;2024-01-15T07:25:15;65.40;;;35.43;;
11809;SDS011;5962;41.566;23.734;2024-01-15T07:27:43;65.20;;;35.27;;
11809;SDS011;5962;41.566;23.734;2024-01-15T07:30:14;67.57;;;35.90;;
11809;SDS011;5962;41.566;23.734;2024-01-15T07:32:42;62.87;;;35.47;;
11809;SDS011;5962;41.566;23.734;2024-01-15T07:35:09;66.57;;;34.80;;
11809;SDS011;5962;41.566;23.734;2024-01-15T07:37:37;92.73;;;50.00;;
11809;SDS011;5962;41.566;23.734;2024-01-15T07:40:05;123.63;;;62.03;;
11809;SDS011;5962;41.566;23.734;2024-01-15T07:42:35;62.03;;;33.23;;
11809;SDS011;5962;41.566;23.734;2024-01-15T07:45:03;61.23;;;33.03;;
11809;SDS011;5962;41.566;23.734;2024-01-15T07:47:32;58.70;;;31.90;;
11809;SDS011;5962;41.566;23.734;2024-01-15T07:50:02;63.20;;;32.97;;
11809;SDS011;5962;41.566;23.734;2024-01-15T07:52:32;54.07;;;29.20;;
11809;SDS011;5962;41.566;23.734;2024-01-15T07:55:00;51.03;;;28.27;;
11809;SDS011;5962;41.566;23.734;2024-01-15T07:57:30;53.10;;;29.77;;
11809;SDS011;5962;41.566;23.734;2024-01-15T07:59:58;48.10;;;26.67;;
11809;SDS011;5962;41.566;23.734;2024-01-15T08:02:26;48.40;;;28.20;;
11809;SDS011;5962;41.566;23.734;2024-01-15T08:04:55;49.00;;;27.17;;
11809;SDS011;5962;41.566;23.734;2024-01-15T08:07:23;46.23;;;27.80;;
11809;SDS011;5962;41.566;23.734;2024-01-15T08:09:51;54.03;;;29.70;;
11809;SDS011;5962;41.566;23.734;2024-01-15T08:12:20;53.07;;;31.50;;
11809;SDS011;5962;41.566;23.734;2024-01-15T08:14:48;66.93;;;34.63;;
11809;SDS011;5962;41.566;23.734;2024-01-15T08:17:19;41.97;;;23.87;;
11809;SDS011;5962;41.566;23.734;2024-01-15T08:19:47;44.93;;;23.67;;
11809;SDS011;5962;41.566;23.734;2024-01-15T08:22:17;40.83;;;23.20;;
11809;SDS011;5962;41.566;23.734;2024-01-15T08:24:45;43.73;;;25.27;;
11809;SDS011;5962;41.566;23.734;2024-01-15T08:27:13;43.03;;;24.07;;
11809;SDS011;5962;41.566;23.734;2024-01-15T08:29:41;41.13;;;22.57;;
11809;SDS011;5962;41.566;23.734;2024-01-15T08:32:09;38.23;;;22.80;;
11809;SDS011;5962;41.566;23.734;2024-01-15T08:34:40;40.30;;;22.13;;
11809;SDS011;5962;41.566;23.734;2024-01-15T08:37:08;39.13;;;23.33;;
11809;SDS011;5962;41.566;23.734;2024-01-15T08:39:37;41.63;;;22.33;;
11809;SDS011;5962;41.566;23.734;2024-01-15T08:42:05;41.10;;;24.83;;
11809;SDS011;5962;41.566;23.734;2024-01-15T08:44:34;35.30;;;21.80;;
11809;SDS011;5962;41.566;23.734;2024-01-15T08:47:02;38.27;;;22.70;;
11809;SDS011;5962;41.566;23.734;2024-01-15T08:49:30;36.47;;;20.57;;
11809;SDS011;5962;41.566;23.734;2024-01-15T08:51:58;40.63;;;21.83;;
11809;SDS011;5962;41.566;23.734;2024-01-15T08:54:26;40.43;;;23.13;;
11809;SDS011;5962;41.566;23.734;2024-01-15T08:56:55;39.60;;;23.37;;
11809;SDS011;5962;41.566;23.734;2024-01-15T08:59:24;42.53;;;23.70;;
11809;SDS011;5962;41.566;23.734;2024-01-15T09:01:52;41.87;;;22.40;;
11809;SDS011;5962;41.566;23.734;2024-01-15T09:04:20;40.43;;;21.77;;
11809;SDS011;5962;41.566;23.734;2024-01-15T09:06:48;36.83;;;22.30;;
11809;SDS011;5962;41.566;23.734;2024-01-15T09:09:16;37.83;;;22.07;;
11809;SDS011;5962;41.566;23.734;2024-01-15T09:11:45;41.10;;;24.10;;
11809;SDS011;5962;41.566;23.734;2024-01-15T09:14:14;45.77;;;25.10;;
11809;SDS011;5962;41.566;23.734;2024-01-15T09:16:42;40.30;;;24.23;;
11809;SDS011;5962;41.566;23.734;2024-01-15T09:19:10;35.40;;;21.73;;
11809;SDS011;5962;41.566;23.734;2024-01-15T09:21:38;42.20;;;23.07;;
11809;SDS011;5962;41.566;23.734;2024-01-15T09:24:06;38.03;;;24.03;;
11809;SDS011;5962;41.566;23.734;2024-01-15T09:26:34;41.67;;;22.87;;
11809;SDS011;5962;41.566;23.734;2024-01-15T09:29:02;42.80;;;23.53;;
11809;SDS011;5962;41.566;23.734;2024-01-15T09:31:32;38.67;;;22.87;;
11809;SDS011;5962;41.566;23.734;2024-01-15T09:34:00;41.97;;;25.27;;
11809;SDS011;5962;41.566;23.734;2024-01-15T09:36:28;40.60;;;23.13;;
11809;SDS011;5962;41.566;23.734;2024-01-15T09:38:57;43.43;;;23.97;;
11809;SDS011;5962;41.566;23.734;2024-01-15T09:41:25;46.03;;;26.73;;
11809;SDS011;5962;41.566;23.734;2024-01-15T09:43:54;39.60;;;24.70;;
11809;SDS011;5962;41.566;23.734;2024-01-15T09:46:22;38.40;;;24.00;;
11809;SDS011;5962;41.566;23.734;2024-01-15T09:48:51;42.57;;;25.37;;
11809;SDS011;5962;41.566;23.734;2024-01-15T09:51:19;45.27;;;25.77;;
11809;SDS011;5962;41.566;23.734;2024-01-15T09:53:47;48.17;;;25.77;;
11809;SDS011;5962;41.566;23.734;2024-01-15T09:56:16;49.30;;;24.13;;
11809;SDS011;5962;41.566;23.734;2024-01-15T09:58:45;44.03;;;25.13;;
11809;SDS011;5962;41.566;23.734;2024-01-15T10:01:13;39.93;;;23.80;;
11809;SDS011;5962;41.566;23.734;2024-01-15T10:03:42;52.27;;;27.60;;
11809;SDS011;5962;41.566;23.734;2024-01-15T10:06:12;45.43;;;26.43;;
11809;SDS011;5962;41.566;23.734;2024-01-15T10:08:47;55.03;;;27.43;;
11809;SDS011;5962;41.566;23.734;2024-01-15T10:11:17;40.10;;;23.67;;
11809;SDS011;5962;41.566;23.734;2024-01-15T10:13:45;55.53;;;29.13;;
11809;SDS011;5962;41.566;23.734;2024-01-15T10:16:18;52.40;;;29.67;;
11809;SDS011;5962;41.566;23.734;2024-01-15T10:18:45;42.23;;;26.17;;
11809;SDS011;5962;41.566;23.734;2024-01-15T10:21:15;46.70;;;25.63;;
11809;SDS011;5962;41.566;23.734;2024-01-15T10:23:43;43.60;;;24.27;;
11809;SDS011;5962;41.566;23.734;2024-01-15T10:26:11;47.07;;;24.73;;
11809;SDS011;5962;41.566;23.734;2024-01-15T10:28:40;40.20;;;23.97;;
11809;SDS011;5962;41.566;23.734;2024-01-15T10:31:09;42.37;;;23.30;;
11809;SDS011;5962;41.566;23.734;2024-01-15T10:33:38;36.20;;;21.37;;
11809;SDS011;5962;41.566;23.734;2024-01-15T10:36:07;27.50;;;16.30;;
11809;SDS011;5962;41.566;23.734;2024-01-15T10:38:38;24.70;;;16.33;;
11809;SDS011;5962;41.566;23.734;2024-01-15T10:41:06;29.77;;;17.20;;
11809;SDS011;5962;41.566;23.734;2024-01-15T10:43:35;27.80;;;17.53;;
11809;SDS011;5962;41.566;23.734;2024-01-15T10:46:03;29.10;;;16.73;;
11809;SDS011;5962;41.566;23.734;2024-01-15T10:48:31;28.37;;;17.93;;
11809;SDS011;5962;41.566;23.734;2024-01-15T10:51:02;39.40;;;19.20;;
11809;SDS011;5962;41.566;23.734;2024-01-15T10:53:38;36.03;;;19.60;;
11809;SDS011;5962;41.566;23.734;2024-01-15T10:56:07;38.70;;;21.97;;
11809;SDS011;5962;41.566;23.734;2024-01-15T10:58:39;40.33;;;23.97;;
11809;SDS011;5962;41.566;23.734;2024-01-15T11:01:09;41.87;;;24.73;;
11809;SDS011;5962;41.566;23.734;2024-01-15T11:03:37;46.77;;;25.60;;
11809;SDS011;5962;41.566;23.734;2024-01-15T11:06:15;54.67;;;25.17;;
11809;SDS011;5962;41.566;23.734;2024-01-15T11:08:45;50.20;;;27.93;;
11809;SDS011;5962;41.566;23.734;2024-01-15T11:11:16;46.87;;;26.30;;
11809;SDS011;5962;41.566;23.734;2024-01-15T11:13:46;47.70;;;24.97;;
11809;SDS011;5962;41.566;23.734;2024-01-15T11:16:17;51.37;;;24.90;;
11809;SDS011;5962;41.566;23.734;2024-01-15T11:21:34;28.43;;;17.53;;
11809;SDS011;5962;41.566;23.734;2024-01-15T11:24:11;25.93;;;15.57;;
11809;SDS011;5962;41.566;23.734;2024-01-15T11:27:06;28.90;;;15.00;;
11809;SDS011;5962;41.566;23.734;2024-01-15T11:29:36;27.70;;;14.50;;
11809;SDS011;5962;41.566;23.734;2024-01-15T11:32:05;22.37;;;14.23;;
11809;SDS011;5962;41.566;23.734;2024-01-15T11:34:49;26.53;;;14.20;;
11809;SDS011;5962;41.566;23.734;2024-01-15T11:37:18;22.93;;;13.03;;
11809;SDS011;5962;41.566;23.734;2024-01-15T11:39:48;20.87;;;12.67;;
11809;SDS011;5962;41.566;23.734;2024-01-15T11:42:18;21.73;;;12.90;;
11809;SDS011;5962;41.566;23.734;2024-01-15T11:44:47;17.47;;;11.70;;
11809;SDS011;5962;41.566;23.734;2024-01-15T11:47:16;22.13;;;12.60;;
11809;SDS011;5962;41.566;23.734;2024-01-15T11:50:13;20.20;;;12.63;;
11809;SDS011;5962;41.566;23.734;2024-01-15T11:52:42;22.03;;;12.87;;
11809;SDS011;5962;41.566;23.734;2024-01-15T11:55:19;24.50;;;13.70;;
11809;SDS011;5962;41.566;23.734;2024-01-15T11:57:50;30.30;;;14.00;;
11809;SDS011;5962;41.566;23.734;2024-01-15T12:00:19;35.60;;;16.13;;
11809;SDS011;5962;41.566;23.734;2024-01-15T12:02:47;26.13;;;14.63;;
11809;SDS011;5962;41.566;23.734;2024-01-15T12:05:18;32.80;;;17.53;;
11809;SDS011;5962;41.566;23.734;2024-01-15T12:07:48;30.43;;;16.10;;
11809;SDS011;5962;41.566;23.734;2024-01-15T12:10:17;30.57;;;17.77;;
11809;SDS011;5962;41.566;23.734;2024-01-15T12:12:54;31.83;;;18.23;;
11809;SDS011;5962;41.566;23.734;2024-01-15T12:15:26;40.20;;;22.53;;
11809;SDS011;5962;41.566;23.734;2024-01-15T12:17:55;45.67;;;22.57;;
11809;SDS011;5962;41.566;23.734;2024-01-15T12:20:24;38.17;;;20.43;;
11809;SDS011;5962;41.566;23.734;2024-01-15T12:22:53;33.07;;;17.33;;
11809;SDS011;5962;41.566;23.734;2024-01-15T12:25:23;26.80;;;15.73;;
11809;SDS011;5962;41.566;23.734;2024-01-15T12:27:53;31.00;;;17.93;;
11809;SDS011;5962;41.566;23.734;2024-01-15T12:30:22;27.17;;;15.13;;
11809;SDS011;5962;41.566;23.734;2024-01-15T12:32:50;25.47;;;13.07;;
11809;SDS011;5962;41.566;23.734;2024-01-15T12:35:18;24.70;;;13.67;;
11809;SDS011;5962;41.566;23.734;2024-01-15T12:37:47;23.60;;;13.97;;
11809;SDS011;5962;41.566;23.734;2024-01-15T12:40:18;20.53;;;13.10;;
11809;SDS011;5962;41.566;23.734;2024-01-15T12:42:48;21.70;;;13.43;;
11809;SDS011;5962;41.566;23.734;2024-01-15T12:45:17;22.57;;;14.67;;
11809;SDS011;5962;41.566;23.734;2024-01-15T12:47:45;26.30;;;15.10;;
11809;SDS011;5962;41.566;23.734;2024-01-15T12:50:14;24.53;;;13.77;;
11809;SDS011;5962;41.566;23.734;2024-01-15T12:52:43;26.23;;;13.70;;
11809;SDS011;5962;41.566;23.734;2024-01-15T12:55:11;35.63;;;15.37;;
11809;SDS011;5962;41.566;23.734;2024-01-15T12:57:41;23.80;;;13.73;;
11809;SDS011;5962;41.566;23.734;2024-01-15T13:00:11;29.13;;;15.77;;
11809;SDS011;5962;41.566;23.734;2024-01-15T13:02:40;34.13;;;16.33;;
11809;SDS011;5962;41.566;23.734;2024-01-15T13:05:08;33.20;;;15.47;;
11809;SDS011;5962;41.566;23.734;2024-01-15T13:07:37;27.17;;;15.83;;
11809;SDS011;5962;41.566;23.734;2024-01-15T13:10:05;28.13;;;15.93;;
11809;SDS011;5962;41.566;23.734;2024-01-15T13:12:35;27.93;;;16.67;;
11809;SDS011;5962;41.566;23.734;2024-01-15T13:15:04;38.37;;;17.13;;
11809;SDS011;5962;41.566;23.734;2024-01-15T13:17:39;27.00;;;15.03;;
11809;SDS011;5962;41.566;23.734;2024-01-15T13:20:07;28.03;;;16.27;;
11809;SDS011;5962;41.566;23.734;2024-01-15T13:22:37;32.50;;;16.70;;
11809;SDS011;5962;41.566;23.734;2024-01-15T13:25:07;30.87;;;16.87;;
11809;SDS011;5962;41.566;23.734;2024-01-15T13:27:35;34.63;;;18.23;;
11809;SDS011;5962;41.566;23.734;2024-01-15T13:30:04;36.93;;;18.23;;
11809;SDS011;5962;41.566;23.734;2024-01-15T13:32:34;36.43;;;18.40;;
11809;SDS011;5962;41.566;23.734;2024-01-15T13:35:03;30.50;;;18.03;;
11809;SDS011;5962;41.566;23.734;2024-01-15T13:37:36;29.87;;;16.53;;
11809;SDS011;5962;41.566;23.734;2024-01-15T13:40:04;30.97;;;17.50;;
11809;SDS011;5962;41.566;23.734;2024-01-15T13:42:35;36.70;;;17.33;;
11809;SDS011;5962;41.566;23.734;2024-01-15T13:45:04;31.37;;;17.83;;
11809;SDS011;5962;41.566;23.734;2024-01-15T13:47:34;31.87;;;16.57;;
11809;SDS011;5962;41.566;23.734;2024-01-15T13:50:03;33.47;;;16.47;;
11809;SDS011;5962;41.566;23.734;2024-01-15T13:52:32;25.40;;;15.60;;
11809;SDS011;5962;41.566;23.734;2024-01-15T13:55:00;25.77;;;15.00;;
11809;SDS011;5962;41.566;23.734;2024-01-15T13:57:28;34.47;;;16.20;;
11809;SDS011;5962;41.566;23.734;2024-01-15T13:59:56;29.47;;;15.73;;
11809;SDS011;5962;41.566;23.734;2024-01-15T14:02:24;29.20;;;16.63;;
11809;SDS011;5962;41.566;23.734;2024-01-15T14:04:52;23.13;;;13.90;;
11809;SDS011;5962;41.566;23.734;2024-01-15T14:07:21;26.87;;;13.63;;
11809;SDS011;5962;41.566;23.734;2024-01-15T14:09:49;26.10;;;13.83;;
11809;SDS011;5962;41.566;23.734;2024-01-15T14:12:18;30.43;;;14.23;;
11809;SDS011;5962;41.566;23.734;2024-01-15T14:14:46;29.20;;;13.00;;
11809;SDS011;5962;41.566;23.734;2024-01-15T14:17:14;22.03;;;10.37;;
11809;SDS011;5962;41.566;23.734;2024-01-15T14:19:42;20.53;;;10.90;;
11809;SDS011;5962;41.566;23.734;2024-01-15T14:22:10;19.70;;;11.20;;
11809;SDS011;5962;41.566;23.734;2024-01-15T14:24:39;20.80;;;11.50;;
11809;SDS011;5962;41.566;23.734;2024-01-15T14:27:07;29.10;;;13.00;;
11809;SDS011;5962;41.566;23.734;2024-01-15T14:29:36;27.53;;;12.10;;
11809;SDS011;5962;41.566;23.734;2024-01-15T14:32:04;28.60;;;13.67;;
11809;SDS011;5962;41.566;23.734;2024-01-15T14:34:32;22.47;;;12.63;;